Time;durP1;ratioP1;P1;durP2;ratioP2;P2;SDS_P1;SDS_P2;PMS_P1;PMS_P2;Temp;Humidity;BMP_temperature;BMP_pressure;BME280_temperature;BME280_humidity;BME280_pressure;Samples;Min_cycle;Max_cycle;Signal;HPM_P1;HPM_P2
2022/07/16 00:01:53;;;;;;;2.63;2.40;;;;;;;;;;6266442;22;20398;-58
2022/07/16 00:04:21;;;;;;;5.20;2.58;;;;;;;;;;6256176;22;20384;-55
2022/07/16 00:06:47;;;;;;;5.50;2.53;;;;;;;;;;6267670;22;20023;-56
2022/07/16 00:09:14;;;;;;;3.28;2.55;;;;;;;;;;6260747;22;20577;-56
2022/07/16 00:11:40;;;;;;;3.63;2.78;;;;;;;;;;6267801;22;20078;-56
2022/07/16 00:14:07;;;;;;;3.10;2.70;;;;;;;;;;6254911;22;20016;-57
2022/07/16 00:16:33;;;;;;;4.95;2.65;;;;;;;;;;6258768;22;20012;-58
2022/07/16 00:21:54;;;;;;;3.13;2.67;;;;;;;;;;6209644;22;20024;-57
2022/07/16 00:24:21;;;;;;;2.72;2.30;;;;;;;;;;6267082;22;20019;-51
2022/07/16 00:26:48;;;;;;;4.72;2.65;;;;;;;;;;6263532;22;20023;-57
2022/07/16 00:29:15;;;;;;;3.88;2.47;;;;;;;;;;6262234;22;20011;-57
2022/07/16 00:31:42;;;;;;;3.33;2.47;;;;;;;;;;6262751;22;20018;-57
2022/07/16 00:34:08;;;;;;;3.25;2.30;;;;;;;;;;6260738;22;20012;-58
2022/07/16 00:36:35;;;;;;;2.70;2.30;;;;;;;;;;6264263;22;20072;-56
2022/07/16 00:39:03;;;;;;;3.97;2.65;;;;;;;;;;6259172;22;20016;-57
2022/07/16 00:41:29;;;;;;;3.75;2.78;;;;;;;;;;6267220;22;20018;-57
2022/07/16 00:43:58;;;;;;;3.58;2.65;;;;;;;;;;6256337;22;20607;-54
2022/07/16 00:46:25;;;;;;;5.00;2.80;;;;;;;;;;6264532;22;20019;-57
2022/07/16 00:48:51;;;;;;;2.70;2.50;;;;;;;;;;6265199;22;20015;-55
2022/07/16 00:51:18;;;;;;;2.75;2.40;;;;;;;;;;6255236;22;20459;-57
2022/07/16 00:53:45;;;;;;;3.78;2.50;;;;;;;;;;6263305;22;20081;-57
2022/07/16 00:56:13;;;;;;;3.22;2.92;;;;;;;;;;6255594;22;20012;-57
2022/07/16 00:58:41;;;;;;;3.07;2.57;;;;;;;;;;6266434;22;20523;-57
2022/07/16 01:01:09;;;;;;;3.53;2.95;;;;;;;;;;6255611;22;20011;-57
2022/07/16 01:03:36;;;;;;;3.80;2.50;;;;;;;;;;6261835;22;20042;-57
2022/07/16 01:06:03;;;;;;;3.30;2.65;;;;;;;;;;6258722;22;20019;-55
2022/07/16 01:08:29;;;;;;;4.00;3.08;;;;;;;;;;6265814;22;20182;-58
2022/07/16 01:10:56;;;;;;;4.03;2.97;;;;;;;;;;6262783;22;20380;-56
2022/07/16 01:13:24;;;;;;;3.28;2.83;;;;;;;;;;6262292;22;20521;-55
2022/07/16 01:15:51;;;;;;;6.15;3.22;;;;;;;;;;6254543;22;20038;-56
2022/07/16 01:18:17;;;;;;;4.22;2.85;;;;;;;;;;6256232;22;20437;-55
2022/07/16 01:20:44;;;;;;;5.03;2.65;;;;;;;;;;6259077;22;20710;-56
2022/07/16 01:23:11;;;;;;;5.88;3.00;;;;;;;;;;6267904;22;20011;-56
2022/07/16 01:25:39;;;;;;;3.20;2.72;;;;;;;;;;6256152;22;20512;-57
2022/07/16 01:28:06;;;;;;;4.47;3.10;;;;;;;;;;6263681;22;20030;-59
2022/07/16 01:30:32;;;;;;;3.78;3.35;;;;;;;;;;6256529;22;20011;-57
2022/07/16 01:32:58;;;;;;;3.70;2.97;;;;;;;;;;6263556;22;20012;-55
2022/07/16 01:35:25;;;;;;;3.13;2.50;;;;;;;;;;6253949;22;20012;-57
2022/07/16 01:37:52;;;;;;;4.75;3.17;;;;;;;;;;6269012;22;20015;-56
2022/07/16 01:40:18;;;;;;;5.63;3.30;;;;;;;;;;6256942;22;20462;-57
2022/07/16 01:42:46;;;;;;;5.35;3.50;;;;;;;;;;6254765;22;20073;-57
2022/07/16 01:45:13;;;;;;;5.22;2.78;;;;;;;;;;6260232;22;20026;-55
2022/07/16 01:47:39;;;;;;;4.50;3.47;;;;;;;;;;6265937;22;20516;-56
2022/07/16 01:50:06;;;;;;;8.00;3.08;;;;;;;;;;6260251;22;20016;-57
2022/07/16 01:52:32;;;;;;;3.75;3.03;;;;;;;;;;6268085;22;20011;-57
2022/07/16 01:54:59;;;;;;;3.92;3.25;;;;;;;;;;6256249;22;20015;-57
2022/07/16 01:57:25;;;;;;;4.07;3.05;;;;;;;;;;6259519;22;20397;-57
2022/07/16 01:59:53;;;;;;;3.78;2.90;;;;;;;;;;6262942;22;20019;-55
2022/07/16 02:02:20;;;;;;;4.32;2.80;;;;;;;;;;6262706;22;20035;-55
2022/07/16 02:04:46;;;;;;;3.53;3.22;;;;;;;;;;6266518;22;20012;-56
2022/07/16 02:07:13;;;;;;;3.63;3.03;;;;;;;;;;6262902;22;20012;-56
2022/07/16 02:09:40;;;;;;;6.32;3.00;;;;;;;;;;6264617;22;20026;-56
2022/07/16 02:12:07;;;;;;;5.22;3.33;;;;;;;;;;6266346;22;20573;-57
2022/07/16 02:14:34;;;;;;;6.07;3.10;;;;;;;;;;6263901;22;20023;-57
2022/07/16 02:17:03;;;;;;;4.80;3.30;;;;;;;;;;6261761;22;20008;-56
2022/07/16 02:19:30;;;;;;;4.07;2.78;;;;;;;;;;6267154;22;20023;-54
2022/07/16 02:21:56;;;;;;;3.45;3.00;;;;;;;;;;6254635;22;20011;-56
2022/07/16 02:24:23;;;;;;;7.15;3.22;;;;;;;;;;6253384;22;20016;-52
2022/07/16 02:26:49;;;;;;;5.18;3.53;;;;;;;;;;6261566;22;20011;-54
2022/07/16 02:29:16;;;;;;;3.53;3.05;;;;;;;;;;6262383;22;20421;-56
2022/07/16 02:31:42;;;;;;;4.68;3.38;;;;;;;;;;6263011;22;20094;-57
2022/07/16 02:34:10;;;;;;;3.63;3.08;;;;;;;;;;6265126;22;20011;-57
2022/07/16 02:36:37;;;;;;;4.80;2.95;;;;;;;;;;6251692;22;20531;-57
2022/07/16 02:39:03;;;;;;;6.22;3.22;;;;;;;;;;6273154;22;20042;-58
2022/07/16 02:41:30;;;;;;;3.47;2.90;;;;;;;;;;6244842;22;20012;-55
2022/07/16 02:43:56;;;;;;;6.78;3.00;;;;;;;;;;6264077;22;20046;-57
2022/07/16 02:46:23;;;;;;;4.05;3.20;;;;;;;;;;6260362;22;20038;-57
2022/07/16 02:48:49;;;;;;;5.32;2.80;;;;;;;;;;6265878;22;20023;-57
2022/07/16 02:51:17;;;;;;;3.33;3.00;;;;;;;;;;6264349;22;20016;-56
2022/07/16 02:53:44;;;;;;;3.55;2.70;;;;;;;;;;6264292;22;20020;-54
2022/07/16 02:56:10;;;;;;;4.57;3.10;;;;;;;;;;6258666;22;20017;-55
2022/07/16 02:58:37;;;;;;;3.13;2.83;;;;;;;;;;6269297;22;20096;-56
2022/07/16 03:01:03;;;;;;;3.40;3.10;;;;;;;;;;6269784;22;20012;-58
2022/07/16 03:03:30;;;;;;;3.58;3.28;;;;;;;;;;6256941;22;20026;-56
2022/07/16 03:05:57;;;;;;;6.22;3.33;;;;;;;;;;6259365;22;20094;-56
2022/07/16 03:08:24;;;;;;;4.30;3.40;;;;;;;;;;6246785;22;20043;-58
2022/07/16 03:10:51;;;;;;;4.45;3.22;;;;;;;;;;6266403;22;20016;-57
2022/07/16 03:13:18;;;;;;;4.63;3.00;;;;;;;;;;6265709;22;20022;-56
2022/07/16 03:15:44;;;;;;;3.22;2.88;;;;;;;;;;6261018;22;20015;-56
2022/07/16 03:18:11;;;;;;;5.30;3.17;;;;;;;;;;6258704;22;20046;-56
2022/07/16 03:20:37;;;;;;;9.35;3.35;;;;;;;;;;6265232;22;20012;-56
2022/07/16 03:23:04;;;;;;;4.18;3.35;;;;;;;;;;6258784;22;20034;-57
2022/07/16 03:25:32;;;;;;;3.13;2.70;;;;;;;;;;6270667;22;20038;-57
2022/07/16 03:27:59;;;;;;;4.13;3.00;;;;;;;;;;6257963;22;20019;-56
2022/07/16 03:30:25;;;;;;;3.83;2.78;;;;;;;;;;6266782;22;20011;-58
2022/07/16 03:32:52;;;;;;;3.78;3.03;;;;;;;;;;6258305;22;20042;-56
2022/07/16 03:35:19;;;;;;;3.88;3.08;;;;;;;;;;6266963;22;20037;-57
2022/07/16 03:40:29;;;;;;;3.45;2.80;;;;;;;;;;6265228;22;20072;-55
2022/07/16 03:42:57;;;;;;;4.47;3.15;;;;;;;;;;6261996;22;20020;-58
2022/07/16 03:45:24;;;;;;;5.00;3.08;;;;;;;;;;6267634;22;20011;-55
2022/07/16 03:47:50;;;;;;;3.60;2.60;;;;;;;;;;6256706;22;20027;-56
2022/07/16 03:50:17;;;;;;;3.80;3.10;;;;;;;;;;6260964;22;20547;-57
2022/07/16 03:52:43;;;;;;;4.32;2.88;;;;;;;;;;6217208;22;20016;-57
2022/07/16 03:55:10;;;;;;;6.65;3.30;;;;;;;;;;6260768;22;20053;-56
2022/07/16 03:57:37;;;;;;;4.03;2.60;;;;;;;;;;6250176;22;20012;-55
2022/07/16 04:00:05;;;;;;;3.78;2.88;;;;;;;;;;6256670;22;20438;-57
2022/07/16 04:02:32;;;;;;;5.22;3.20;;;;;;;;;;6265937;22;20011;-57
2022/07/16 04:04:59;;;;;;;3.67;3.15;;;;;;;;;;6269666;22;20079;-57
2022/07/16 04:07:25;;;;;;;3.90;3.47;;;;;;;;;;6259775;22;20012;-54
2022/07/16 04:09:52;;;;;;;2.65;2.45;;;;;;;;;;6268929;22;20068;-57
2022/07/16 04:12:18;;;;;;;3.47;3.15;;;;;;;;;;6258229;22;20020;-54
2022/07/16 04:14:45;;;;;;;3.80;2.90;;;;;;;;;;6263086;22;20015;-57
2022/07/16 04:17:13;;;;;;;3.38;3.08;;;;;;;;;;6267296;22;20051;-56
2022/07/16 04:19:39;;;;;;;4.68;3.42;;;;;;;;;;6248144;22;20042;-57
2022/07/16 04:22:06;;;;;;;4.28;3.15;;;;;;;;;;6263591;22;20265;-57
2022/07/16 04:24:33;;;;;;;3.28;2.67;;;;;;;;;;6261963;22;20007;-56
2022/07/16 04:26:59;;;;;;;5.53;3.25;;;;;;;;;;6267987;22;20089;-54
2022/07/16 04:29:26;;;;;;;3.47;2.95;;;;;;;;;;6258968;22;20167;-56
2022/07/16 04:31:52;;;;;;;3.33;3.03;;;;;;;;;;6268064;22;20400;-57
2022/07/16 04:34:20;;;;;;;3.25;2.75;;;;;;;;;;6264375;22;20046;-58
2022/07/16 04:36:47;;;;;;;4.07;3.00;;;;;;;;;;6260016;22;20023;-56
2022/07/16 04:39:13;;;;;;;4.57;3.40;;;;;;;;;;6263221;22;20019;-57
2022/07/16 04:41:40;;;;;;;6.07;2.55;;;;;;;;;;6269296;22;20434;-55
2022/07/16 04:44:06;;;;;;;4.32;3.20;;;;;;;;;;6262879;22;20026;-57
2022/07/16 04:46:33;;;;;;;3.88;3.22;;;;;;;;;;6262679;22;20040;-58
2022/07/16 04:49:00;;;;;;;3.97;2.63;;;;;;;;;;6263401;22;20075;-53
2022/07/16 04:51:28;;;;;;;3.67;2.95;;;;;;;;;;6260142;22;20496;-57
2022/07/16 04:53:54;;;;;;;9.10;3.53;;;;;;;;;;6269373;22;20461;-57
2022/07/16 04:56:21;;;;;;;3.40;3.08;;;;;;;;;;6260170;22;20456;-55
2022/07/16 04:58:47;;;;;;;3.92;3.15;;;;;;;;;;6269186;22;20012;-55
2022/07/16 05:01:14;;;;;;;3.55;3.20;;;;;;;;;;6259009;22;20744;-57
2022/07/16 05:03:40;;;;;;;4.00;3.55;;;;;;;;;;6254011;22;20011;-55
2022/07/16 05:06:07;;;;;;;3.88;3.20;;;;;;;;;;6267119;22;20020;-54
2022/07/16 05:08:35;;;;;;;5.20;2.92;;;;;;;;;;6259835;22;20031;-55
2022/07/16 05:11:02;;;;;;;3.38;3.05;;;;;;;;;;6262145;22;20011;-56
2022/07/16 05:13:28;;;;;;;4.75;3.28;;;;;;;;;;6267922;22;20015;-57
2022/07/16 05:15:55;;;;;;;5.13;3.55;;;;;;;;;;6262565;22;20024;-57
2022/07/16 05:18:21;;;;;;;4.30;3.50;;;;;;;;;;6264130;22;20389;-57
2022/07/16 05:20:48;;;;;;;3.58;3.15;;;;;;;;;;6265154;22;20035;-57
2022/07/16 05:23:14;;;;;;;4.03;2.85;;;;;;;;;;6261914;22;20023;-57
2022/07/16 05:25:42;;;;;;;4.10;3.55;;;;;;;;;;6260621;22;20034;-57
2022/07/16 05:28:09;;;;;;;6.05;2.83;;;;;;;;;;6257765;22;20023;-55
2022/07/16 05:30:35;;;;;;;9.48;3.40;;;;;;;;;;6265156;22;20054;-57
2022/07/16 05:33:02;;;;;;;5.15;3.50;;;;;;;;;;6257151;22;20071;-57
2022/07/16 05:35:28;;;;;;;5.18;3.20;;;;;;;;;;6265498;22;20012;-57
2022/07/16 05:37:55;;;;;;;3.33;2.45;;;;;;;;;;6262766;22;20016;-57
2022/07/16 05:40:21;;;;;;;4.85;2.83;;;;;;;;;;6262091;22;20016;-57
2022/07/16 05:42:50;;;;;;;5.47;3.08;;;;;;;;;;6259496;22;20023;-57
2022/07/16 05:45:17;;;;;;;3.35;2.67;;;;;;;;;;6263658;22;20023;-57
2022/07/16 05:47:43;;;;;;;5.03;3.38;;;;;;;;;;6262907;22;20012;-56
2022/07/16 05:50:10;;;;;;;2.92;2.67;;;;;;;;;;6266516;22;20089;-55
2022/07/16 05:52:37;;;;;;;4.45;2.85;;;;;;;;;;6257397;22;20028;-57
2022/07/16 05:55:04;;;;;;;5.00;3.45;;;;;;;;;;6255661;22;20042;-56
2022/07/16 05:57:30;;;;;;;3.58;2.95;;;;;;;;;;6263780;22;20015;-54
2022/07/16 05:59:58;;;;;;;5.47;3.30;;;;;;;;;;6251452;22;20736;-57
2022/07/16 06:02:25;;;;;;;5.95;3.22;;;;;;;;;;6268926;22;20122;-55
2022/07/16 06:04:51;;;;;;;4.53;3.33;;;;;;;;;;6259736;22;20018;-56
2022/07/16 06:07:18;;;;;;;4.00;3.20;;;;;;;;;;6257561;22;20015;-57
2022/07/16 06:09:44;;;;;;;6.35;3.60;;;;;;;;;;6262265;22;20023;-56
2022/07/16 06:12:11;;;;;;;9.18;3.75;;;;;;;;;;6251539;22;20075;-57
2022/07/16 06:14:37;;;;;;;6.80;4.03;;;;;;;;;;6254166;22;20083;-54
2022/07/16 06:17:05;;;;;;;6.45;3.60;;;;;;;;;;6260661;22;20097;-57
2022/07/16 06:19:32;;;;;;;6.30;3.65;;;;;;;;;;6265789;22;20020;-56
2022/07/16 06:21:58;;;;;;;3.40;3.10;;;;;;;;;;6261429;22;20257;-55
2022/07/16 06:24:25;;;;;;;6.65;3.75;;;;;;;;;;6258497;22;20038;-57
2022/07/16 06:26:51;;;;;;;4.40;3.38;;;;;;;;;;6258645;22;20023;-53
2022/07/16 06:29:18;;;;;;;6.22;4.18;;;;;;;;;;6262300;22;20034;-57
2022/07/16 06:31:45;;;;;;;7.40;4.88;;;;;;;;;;6264389;22;20015;-55
2022/07/16 06:34:13;;;;;;;9.88;4.10;;;;;;;;;;6260020;22;20012;-54
2022/07/16 06:36:39;;;;;;;8.43;4.43;;;;;;;;;;6251991;22;20016;-54
2022/07/16 06:39:07;;;;;;;7.57;3.72;;;;;;;;;;6256593;22;20012;-57
2022/07/16 06:41:35;;;;;;;6.95;4.30;;;;;;;;;;6240223;22;20022;-57
2022/07/16 06:44:02;;;;;;;5.68;4.43;;;;;;;;;;6257694;22;20013;-57
2022/07/16 06:46:29;;;;;;;7.18;4.05;;;;;;;;;;6259701;22;20024;-54
2022/07/16 06:48:55;;;;;;;5.70;4.32;;;;;;;;;;6262974;22;20020;-56
2022/07/16 06:51:23;;;;;;;7.03;3.60;;;;;;;;;;6251342;22;20440;-56
2022/07/16 06:53:49;;;;;;;5.05;4.47;;;;;;;;;;6258473;22;20012;-57
2022/07/16 06:56:16;;;;;;;7.53;4.22;;;;;;;;;;6266557;22;20023;-57
2022/07/16 06:58:42;;;;;;;6.65;4.35;;;;;;;;;;6263612;22;20098;-57
2022/07/16 07:01:09;;;;;;;5.82;4.10;;;;;;;;;;6264977;22;20026;-54
2022/07/16 07:03:38;;;;;;;6.30;4.55;;;;;;;;;;6264702;22;20020;-56
2022/07/16 07:06:04;;;;;;;6.45;3.38;;;;;;;;;;6262983;22;20015;-55
2022/07/16 07:08:32;;;;;;;6.45;3.30;;;;;;;;;;6261574;22;20020;-58
2022/07/16 07:11:00;;;;;;;4.82;3.75;;;;;;;;;;6258326;22;20019;-57
2022/07/16 07:13:27;;;;;;;7.65;4.00;;;;;;;;;;6268690;22;20023;-58
2022/07/16 07:15:53;;;;;;;6.85;4.00;;;;;;;;;;6250019;22;20016;-58
2022/07/16 07:18:20;;;;;;;4.63;3.72;;;;;;;;;;6269940;22;20022;-57
2022/07/16 07:20:46;;;;;;;5.70;3.25;;;;;;;;;;6259049;22;20015;-57
2022/07/16 07:23:13;;;;;;;4.72;3.35;;;;;;;;;;6266472;22;20481;-58
2022/07/16 07:25:41;;;;;;;7.25;3.78;;;;;;;;;;6260862;22;20042;-58
2022/07/16 07:28:08;;;;;;;5.63;3.08;;;;;;;;;;6254092;22;20019;-57
2022/07/16 07:30:34;;;;;;;3.90;2.95;;;;;;;;;;6256592;22;20045;-56
2022/07/16 07:33:01;;;;;;;4.60;3.00;;;;;;;;;;6268285;22;20059;-56
2022/07/16 07:35:27;;;;;;;5.25;2.50;;;;;;;;;;6264453;22;20568;-55
2022/07/16 07:37:54;;;;;;;3.53;2.40;;;;;;;;;;6266250;22;20020;-58
2022/07/16 07:40:21;;;;;;;3.25;2.55;;;;;;;;;;6257680;22;20041;-57
2022/07/16 07:42:48;;;;;;;4.68;2.05;;;;;;;;;;6262047;22;20671;-57
2022/07/16 07:45:15;;;;;;;4.78;2.15;;;;;;;;;;6264403;22;20012;-57
2022/07/16 07:47:41;;;;;;;3.85;2.38;;;;;;;;;;6263802;22;20050;-57
2022/07/16 07:50:09;;;;;;;4.57;2.53;;;;;;;;;;6258550;22;20027;-57
2022/07/16 07:52:35;;;;;;;3.67;2.88;;;;;;;;;;6259405;22;20034;-58
2022/07/16 07:55:02;;;;;;;3.42;2.35;;;;;;;;;;6259202;22;20039;-58
2022/07/16 07:57:29;;;;;;;3.85;2.30;;;;;;;;;;6266785;22;20175;-57
2022/07/16 07:59:57;;;;;;;3.42;2.05;;;;;;;;;;6249811;22;20016;-58
2022/07/16 08:02:24;;;;;;;4.03;2.10;;;;;;;;;;6265883;22;20020;-58
2022/07/16 08:04:51;;;;;;;5.45;2.70;;;;;;;;;;6259160;22;20018;-56
2022/07/16 08:07:17;;;;;;;2.40;2.08;;;;;;;;;;6256254;22;20554;-56
2022/07/16 08:09:44;;;;;;;4.50;2.40;;;;;;;;;;6268106;22;20472;-58
2022/07/16 08:12:11;;;;;;;2.47;2.00;;;;;;;;;;6261670;22;20050;-57
2022/07/16 08:14:37;;;;;;;3.00;1.90;;;;;;;;;;6260195;22;20019;-57
2022/07/16 08:17:05;;;;;;;2.05;1.50;;;;;;;;;;6258309;22;20026;-57
2022/07/16 08:19:33;;;;;;;7.50;2.90;;;;;;;;;;6268217;22;20116;-57
2022/07/16 08:22:00;;;;;;;2.95;1.50;;;;;;;;;;6257371;22;20020;-58
2022/07/16 08:27:10;;;;;;;3.88;1.67;;;;;;;;;;6261545;22;20018;-58
2022/07/16 08:29:37;;;;;;;3.22;1.98;;;;;;;;;;6266008;22;20027;-58
2022/07/16 08:32:06;;;;;;;3.72;1.67;;;;;;;;;;6260152;22;20085;-59
2022/07/16 08:34:33;;;;;;;2.35;1.55;;;;;;;;;;6259604;22;20015;-57
2022/07/16 08:37:00;;;;;;;3.13;1.60;;;;;;;;;;6259524;22;20011;-57
2022/07/16 08:39:27;;;;;;;2.22;2.03;;;;;;;;;;6258012;22;20012;-57
2022/07/16 08:41:54;;;;;;;3.00;1.52;;;;;;;;;;6260918;22;20337;-57
2022/07/16 08:44:20;;;;;;;4.03;2.13;;;;;;;;;;6259144;22;20118;-58
2022/07/16 08:46:47;;;;;;;3.28;1.63;;;;;;;;;;6258619;22;20011;-58
2022/07/16 08:49:17;;;;;;;1.77;1.40;;;;;;;;;;6269096;22;20024;-58
2022/07/16 08:51:45;;;;;;;1.63;1.23;;;;;;;;;;6257521;22;20023;-59
2022/07/16 08:54:13;;;;;;;2.15;1.77;;;;;;;;;;6270011;22;20020;-57
2022/07/16 08:56:42;;;;;;;1.85;1.75;;;;;;;;;;6255233;22;20011;-58
2022/07/16 08:59:09;;;;;;;1.45;1.30;;;;;;;;;;6264166;22;20034;-58
2022/07/16 09:01:36;;;;;;;2.70;1.33;;;;;;;;;;6255643;22;20016;-58
2022/07/16 09:04:03;;;;;;;4.97;1.20;;;;;;;;;;6256523;22;20042;-58
2022/07/16 09:06:32;;;;;;;1.92;1.40;;;;;;;;;;6285552;22;20024;-58
2022/07/16 09:08:58;;;;;;;3.13;1.42;;;;;;;;;;6258901;22;20020;-59
2022/07/16 09:11:26;;;;;;;3.78;1.52;;;;;;;;;;6268645;22;20050;-57
2022/07/16 09:14:02;;;;;;;2.08;1.50;;;;;;;;;;6258024;22;20016;-58
2022/07/16 09:16:30;;;;;;;3.20;1.33;;;;;;;;;;6258907;22;20532;-58
2022/07/16 09:19:04;;;;;;;1.52;1.13;;;;;;;;;;6261801;22;20012;-58
2022/07/16 09:21:32;;;;;;;2.08;1.10;;;;;;;;;;6265470;22;20011;-57
2022/07/16 09:23:59;;;;;;;2.42;1.17;;;;;;;;;;6257636;22;20019;-57
2022/07/16 09:26:27;;;;;;;3.47;1.35;;;;;;;;;;6259767;22;20072;-56
2022/07/16 09:28:54;;;;;;;2.40;1.17;;;;;;;;;;6260813;22;20016;-57
2022/07/16 09:31:35;;;;;;;1.98;1.83;;;;;;;;;;6255049;22;20324;-57
2022/07/16 09:34:02;;;;;;;2.10;1.40;;;;;;;;;;6265848;22;20015;-57
2022/07/16 09:36:29;;;;;;;1.50;1.35;;;;;;;;;;6256696;22;20007;-55
2022/07/16 09:38:56;;;;;;;1.80;1.23;;;;;;;;;;6257169;22;20498;-56
2022/07/16 09:41:23;;;;;;;1.50;1.40;;;;;;;;;;6257367;22;20026;-57
2022/07/16 09:43:51;;;;;;;2.50;1.58;;;;;;;;;;6260089;22;20047;-56
2022/07/16 09:46:18;;;;;;;1.50;1.40;;;;;;;;;;6262362;22;20071;-55
2022/07/16 09:48:45;;;;;;;2.05;1.48;;;;;;;;;;6258900;22;20019;-55
2022/07/16 09:51:17;;;;;;;2.38;1.67;;;;;;;;;;6261665;22;20020;-55
2022/07/16 09:53:46;;;;;;;1.83;1.48;;;;;;;;;;6264503;22;20018;-55
2022/07/16 09:56:15;;;;;;;4.80;1.88;;;;;;;;;;6251717;22;20080;-57
2022/07/16 09:58:46;;;;;;;1.73;1.40;;;;;;;;;;6263277;22;20055;-55
2022/07/16 10:01:13;;;;;;;3.45;1.05;;;;;;;;;;6251941;22;20086;-57
2022/07/16 10:03:40;;;;;;;1.58;1.38;;;;;;;;;;6262256;22;20024;-57
2022/07/16 10:06:07;;;;;;;2.88;1.25;;;;;;;;;;6256759;22;20011;-54
2022/07/16 10:08:34;;;;;;;3.88;1.42;;;;;;;;;;6258967;22;20084;-55
2022/07/16 10:11:01;;;;;;;1.30;1.05;;;;;;;;;;6264139;22;20023;-55
2022/07/16 10:13:30;;;;;;;2.63;1.48;;;;;;;;;;6261093;22;20018;-57
2022/07/16 10:15:57;;;;;;;0.93;0.90;;;;;;;;;;6256863;22;20012;-57
2022/07/16 10:18:41;;;;;;;1.67;1.10;;;;;;;;;;6260856;22;20081;-56
2022/07/16 10:21:10;;;;;;;1.10;1.00;;;;;;;;;;6258614;22;20011;-57
2022/07/16 10:23:37;;;;;;;2.10;1.10;;;;;;;;;;6254467;22;20039;-56
2022/07/16 10:26:05;;;;;;;1.67;1.30;;;;;;;;;;6267397;22;20011;-57
2022/07/16 10:28:43;;;;;;;1.95;1.50;;;;;;;;;;6259372;22;20015;-57
2022/07/16 10:31:28;;;;;;;2.03;1.00;;;;;;;;;;6264172;22;20024;-57
2022/07/16 10:34:10;;;;;;;1.98;1.25;;;;;;;;;;6268156;22;20593;-56
2022/07/16 10:36:46;;;;;;;1.80;1.15;;;;;;;;;;6252629;22;20212;-57
2022/07/16 10:39:15;;;;;;;1.48;1.02;;;;;;;;;;6256008;22;20043;-57
2022/07/16 10:41:48;;;;;;;1.38;1.00;;;;;;;;;;6265661;22;20086;-57
2022/07/16 10:44:16;;;;;;;4.00;1.25;;;;;;;;;;6261161;22;20019;-57
2022/07/16 10:46:51;;;;;;;4.55;1.35;;;;;;;;;;6268450;22;20187;-57
2022/07/16 10:49:18;;;;;;;2.58;0.98;;;;;;;;;;6246995;22;20670;-58
2022/07/16 10:51:56;;;;;;;2.25;1.65;;;;;;;;;;6226360;22;20661;-55
2022/07/16 10:54:22;;;;;;;2.67;1.08;;;;;;;;;;6256681;22;20026;-57
2022/07/16 10:56:49;;;;;;;1.45;1.23;;;;;;;;;;6265297;22;20019;-55
2022/07/16 10:59:20;;;;;;;1.15;1.00;;;;;;;;;;6266702;22;20019;-56
2022/07/16 11:01:48;;;;;;;1.90;0.98;;;;;;;;;;6266654;22;20016;-56
2022/07/16 11:04:16;;;;;;;2.20;1.10;;;;;;;;;;6266797;22;20019;-57
2022/07/16 11:06:48;;;;;;;3.03;1.00;;;;;;;;;;6257640;22;20026;-56
2022/07/16 11:09:16;;;;;;;1.20;0.80;;;;;;;;;;6267744;22;20016;-55
2022/07/16 11:11:43;;;;;;;1.00;0.98;;;;;;;;;;6258477;22;20023;-56
2022/07/16 11:14:10;;;;;;;1.10;1.00;;;;;;;;;;6261106;22;20035;-57
2022/07/16 11:16:48;;;;;;;2.13;1.25;;;;;;;;;;6263091;22;20140;-56
2022/07/16 11:19:15;;;;;;;2.42;1.27;;;;;;;;;;6258764;22;20159;-54
2022/07/16 11:21:51;;;;;;;1.33;1.20;;;;;;;;;;6257138;22;20091;-56
2022/07/16 11:24:18;;;;;;;1.33;0.90;;;;;;;;;;6260242;22;20015;-55
2022/07/16 11:26:44;;;;;;;2.00;1.15;;;;;;;;;;6251682;22;20590;-54
2022/07/16 11:29:11;;;;;;;1.92;1.30;;;;;;;;;;6262929;22;20011;-57
2022/07/16 11:31:39;;;;;;;2.22;1.15;;;;;;;;;;6256417;22;20754;-56
2022/07/16 11:34:07;;;;;;;2.05;1.50;;;;;;;;;;6265621;22;20182;-57
2022/07/16 11:36:34;;;;;;;1.45;0.85;;;;;;;;;;6248653;22;20023;-57
2022/07/16 11:39:02;;;;;;;1.10;0.80;;;;;;;;;;6266698;22;20131;-57
2022/07/16 11:41:29;;;;;;;1.13;0.90;;;;;;;;;;6255569;22;20087;-57
2022/07/16 11:43:55;;;;;;;1.58;0.82;;;;;;;;;;6259417;22;20401;-57
2022/07/16 11:46:23;;;;;;;1.40;1.10;;;;;;;;;;6280261;22;20015;-57
2022/07/16 11:48:52;;;;;;;1.70;0.90;;;;;;;;;;6264424;22;20016;-56
2022/07/16 11:51:18;;;;;;;1.25;0.80;;;;;;;;;;6257707;22;20784;-56
2022/07/16 11:53:47;;;;;;;1.10;0.98;;;;;;;;;;6265768;22;20036;-56
2022/07/16 11:56:14;;;;;;;0.70;0.70;;;;;;;;;;6246865;22;20023;-55
2022/07/16 11:58:40;;;;;;;2.58;1.00;;;;;;;;;;6262399;22;20022;-55
2022/07/16 12:01:07;;;;;;;1.75;1.25;;;;;;;;;;6252069;22;20012;-57
2022/07/16 12:03:34;;;;;;;1.60;1.38;;;;;;;;;;6267259;22;20054;-55
2022/07/16 12:06:02;;;;;;;1.20;1.10;;;;;;;;;;6243002;22;20020;-56
2022/07/16 12:08:30;;;;;;;3.20;1.53;;;;;;;;;;6242645;22;20011;-53
2022/07/16 12:11:03;;;;;;;1.40;1.23;;;;;;;;;;6220284;22;20023;-57
2022/07/16 12:13:29;;;;;;;1.73;1.48;;;;;;;;;;6245270;22;20018;-55
2022/07/16 12:15:57;;;;;;;1.15;0.90;;;;;;;;;;6221081;22;20011;-56
2022/07/16 12:18:24;;;;;;;1.75;1.30;;;;;;;;;;6240558;22;20027;-55
2022/07/16 12:20:50;;;;;;;9.18;1.70;;;;;;;;;;6240562;22;20026;-56
2022/07/16 12:23:32;;;;;;;1.92;1.13;;;;;;;;;;6247004;22;20081;-57
2022/07/16 12:26:00;;;;;;;1.30;1.20;;;;;;;;;;6245429;22;20016;-55
2022/07/16 12:28:27;;;;;;;0.85;0.85;;;;;;;;;;6252997;22;20530;-56
2022/07/16 12:30:55;;;;;;;1.83;1.30;;;;;;;;;;6256208;22;20283;-55
2022/07/16 12:33:23;;;;;;;2.65;1.70;;;;;;;;;;6247140;22;20093;-56
2022/07/16 12:35:50;;;;;;;1.55;1.45;;;;;;;;;;6256358;22;20012;-57
2022/07/16 12:38:51;;;;;;;2.47;1.35;;;;;;;;;;6253911;22;20042;-56
2022/07/16 12:41:20;;;;;;;2.50;1.80;;;;;;;;;;6155522;23;20020;-55
2022/07/16 12:43:49;;;;;;;1.98;1.50;;;;;;;;;;6157408;23;20017;-55
2022/07/16 12:46:17;;;;;;;1.65;1.45;;;;;;;;;;6204384;22;20046;-55
2022/07/16 12:48:44;;;;;;;3.28;1.50;;;;;;;;;;6256958;22;20120;-56
2022/07/16 12:51:14;;;;;;;1.48;1.38;;;;;;;;;;6257673;22;20012;-56
2022/07/16 12:53:41;;;;;;;2.33;1.42;;;;;;;;;;6259004;22;20038;-58
2022/07/16 12:58:53;;;;;;;2.55;1.42;;;;;;;;;;6259997;22;20240;-56
2022/07/16 13:01:20;;;;;;;2.13;1.70;;;;;;;;;;6249566;22;20019;-54
2022/07/16 13:03:47;;;;;;;2.67;1.60;;;;;;;;;;6237378;22;20550;-55
2022/07/16 13:06:14;;;;;;;1.85;1.40;;;;;;;;;;6248367;22;20016;-57
2022/07/16 13:08:41;;;;;;;2.95;1.65;;;;;;;;;;6245057;22;20075;-58
2022/07/16 13:11:08;;;;;;;1.83;1.50;;;;;;;;;;6252442;22;20019;-56
2022/07/16 13:13:35;;;;;;;1.60;1.50;;;;;;;;;;6239906;22;20011;-56
2022/07/16 13:16:03;;;;;;;4.55;1.92;;;;;;;;;;6253896;22;20080;-57
2022/07/16 13:18:30;;;;;;;2.30;1.73;;;;;;;;;;6253756;22;20454;-58
2022/07/16 13:20:57;;;;;;;3.13;1.92;;;;;;;;;;6244969;22;20127;-60
2022/07/16 13:23:24;;;;;;;3.30;1.70;;;;;;;;;;6237852;22;20019;-59
2022/07/16 13:25:51;;;;;;;2.67;1.85;;;;;;;;;;6228958;22;20422;-56
2022/07/16 13:28:18;;;;;;;2.47;1.88;;;;;;;;;;6238335;22;20025;-56
2022/07/16 13:30:45;;;;;;;2.00;1.63;;;;;;;;;;6237128;22;20015;-58
2022/07/16 13:33:13;;;;;;;2.88;2.15;;;;;;;;;;6236253;22;20011;-57
2022/07/16 13:35:40;;;;;;;2.45;2.00;;;;;;;;;;6238079;22;20018;-58
2022/07/16 13:38:08;;;;;;;3.63;1.65;;;;;;;;;;6241045;22;20018;-58
2022/07/16 13:40:35;;;;;;;3.33;2.33;;;;;;;;;;6217831;22;20024;-58
2022/07/16 13:43:02;;;;;;;3.00;1.70;;;;;;;;;;6238402;22;20397;-58
2022/07/16 13:45:29;;;;;;;3.65;2.15;;;;;;;;;;6250423;22;20011;-57
2022/07/16 13:47:55;;;;;;;2.58;1.50;;;;;;;;;;6251313;22;20171;-55
2022/07/16 13:50:23;;;;;;;1.92;1.20;;;;;;;;;;6258281;22;20026;-58
2022/07/16 13:52:50;;;;;;;1.42;1.33;;;;;;;;;;6247170;22;20016;-58
2022/07/16 13:55:17;;;;;;;2.83;2.30;;;;;;;;;;6255139;22;20300;-58
2022/07/16 14:00:29;;;;;;;2.25;1.83;;;;;;;;;;6257098;22;20016;-57
2022/07/16 14:02:55;;;;;;;4.28;2.40;;;;;;;;;;6250750;22;20621;-58
2022/07/16 14:05:23;;;;;;;6.68;1.60;;;;;;;;;;6258507;22;20016;-58
2022/07/16 14:07:50;;;;;;;1.88;1.40;;;;;;;;;;6249984;22;20021;-57
2022/07/16 14:10:17;;;;;;;4.60;1.52;;;;;;;;;;6253338;22;20020;-56
2022/07/16 14:12:44;;;;;;;2.25;1.60;;;;;;;;;;6253010;22;20027;-53
2022/07/16 14:15:11;;;;;;;2.33;1.88;;;;;;;;;;6253235;22;20015;-53
2022/07/16 14:17:38;;;;;;;2.92;2.08;;;;;;;;;;6254665;22;20026;-55
2022/07/16 14:20:06;;;;;;;4.28;1.85;;;;;;;;;;6256416;22;20015;-55
2022/07/16 14:22:34;;;;;;;2.17;1.98;;;;;;;;;;6250457;22;20018;-53
2022/07/16 14:25:01;;;;;;;1.52;1.30;;;;;;;;;;6252946;22;20050;-56
2022/07/16 14:27:27;;;;;;;2.72;1.80;;;;;;;;;;6256031;22;20016;-53
2022/07/16 14:29:54;;;;;;;2.40;1.95;;;;;;;;;;6250755;22;20011;-57
2022/07/16 14:32:20;;;;;;;2.63;1.67;;;;;;;;;;6241185;22;20026;-56
2022/07/16 14:34:47;;;;;;;1.70;1.08;;;;;;;;;;6224769;22;20012;-57
2022/07/16 14:37:15;;;;;;;2.65;1.42;;;;;;;;;;6228871;22;20046;-55
2022/07/16 14:39:43;;;;;;;3.90;1.50;;;;;;;;;;6226378;22;20015;-55
2022/07/16 14:42:10;;;;;;;1.98;1.50;;;;;;;;;;6237168;22;20039;-57
2022/07/16 14:44:36;;;;;;;1.88;1.77;;;;;;;;;;6247783;22;20263;-57
2022/07/16 14:47:03;;;;;;;1.88;1.50;;;;;;;;;;6232365;22;20026;-57
2022/07/16 14:49:29;;;;;;;2.95;2.13;;;;;;;;;;6226664;22;20026;-57
2022/07/16 14:51:56;;;;;;;1.50;1.40;;;;;;;;;;6222132;22;20085;-57
2022/07/16 14:54:23;;;;;;;1.98;1.73;;;;;;;;;;6223450;22;20012;-57
2022/07/16 14:56:52;;;;;;;2.17;1.98;;;;;;;;;;6213881;22;20091;-57
2022/07/16 14:59:19;;;;;;;1.98;1.75;;;;;;;;;;6250820;22;20518;-58